createdAt,value
2022-11-29T00:01:21.801Z,100.00
2022-11-29T00:03:48.118Z,100.00
2022-11-29T00:06:15.545Z,100.00
2022-11-29T00:08:42.417Z,100.00
2022-11-29T00:11:10.480Z,100.00
2022-11-29T00:13:37.010Z,100.00
2022-11-29T00:16:07.458Z,100.00
2022-11-29T00:18:34.079Z,100.00
2022-11-29T00:21:05.021Z,100.00
2022-11-29T00:23:31.372Z,100.00
2022-11-29T00:26:02.743Z,100.00
2022-11-29T00:28:29.050Z,100.00
2022-11-29T00:30:55.426Z,100.00
2022-11-29T00:33:21.749Z,100.00
2022-11-29T00:35:48.089Z,100.00
2022-11-29T00:38:14.490Z,100.00
2022-11-29T00:40:40.825Z,100.00
2022-11-29T00:43:07.125Z,100.00
2022-11-29T00:45:33.639Z,100.00
2022-11-29T00:48:00.009Z,100.00
2022-11-29T00:50:26.378Z,100.00
2022-11-29T00:52:52.693Z,100.00
2022-11-29T00:55:19.021Z,100.00
2022-11-29T00:57:45.311Z,100.00
2022-11-29T01:00:11.927Z,100.00
2022-11-29T01:02:38.232Z,100.00
2022-11-29T01:05:04.674Z,100.00
2022-11-29T01:07:31.020Z,100.00
2022-11-29T01:09:57.394Z,100.00
2022-11-29T01:12:23.953Z,100.00
2022-11-29T01:14:50.274Z,100.00
2022-11-29T01:17:16.582Z,100.00
2022-11-29T01:19:47.831Z,100.00
2022-11-29T01:22:16.937Z,100.00
2022-11-29T01:24:43.421Z,100.00
2022-11-29T01:27:10.052Z,100.00
2022-11-29T01:29:36.358Z,100.00
2022-11-29T01:32:02.693Z,100.00
2022-11-29T01:34:29.002Z,100.00
2022-11-29T01:36:55.311Z,100.00
2022-11-29T01:39:21.644Z,100.00
2022-11-29T01:41:47.939Z,100.00
2022-11-29T01:44:14.194Z,100.00
2022-11-29T01:46:42.362Z,100.00
2022-11-29T01:49:11.550Z,100.00
2022-11-29T01:51:39.014Z,100.00
2022-11-29T01:54:05.880Z,100.00
2022-11-29T01:56:33.747Z,100.00
2022-11-29T01:59:01.870Z,100.00
2022-11-29T02:01:28.284Z,100.00
2022-11-29T02:03:54.766Z,100.00
2022-11-29T02:06:22.036Z,100.00
2022-11-29T02:08:48.353Z,100.00
2022-11-29T02:11:33.587Z,100.00
2022-11-29T02:14:24.077Z,100.00
2022-11-29T02:17:00.593Z,100.00
2022-11-29T02:19:29.857Z,100.00
2022-11-29T02:22:04.154Z,100.00
2022-11-29T02:24:48.421Z,100.00
2022-11-29T02:27:33.728Z,100.00
2022-11-29T02:30:15.317Z,100.00
2022-11-29T02:33:00.569Z,100.00
2022-11-29T02:35:38.672Z,100.00
2022-11-29T02:38:15.631Z,100.00
2022-11-29T02:41:06.729Z,100.00
2022-11-29T02:43:39.815Z,100.00
2022-11-29T02:46:16.732Z,100.00
2022-11-29T02:49:15.502Z,100.00
2022-11-29T02:52:00.311Z,100.00
2022-11-29T02:54:29.875Z,100.00
2022-11-29T02:57:04.483Z,100.00
2022-11-29T02:59:30.738Z,100.00
2022-11-29T03:02:03.188Z,100.00
2022-11-29T03:04:48.317Z,100.00
2022-11-29T03:07:25.708Z,100.00
2022-11-29T03:09:57.597Z,100.00
2022-11-29T03:12:32.164Z,100.00
2022-11-29T03:15:17.522Z,100.00
2022-11-29T03:18:19.483Z,100.00
2022-11-29T03:20:51.896Z,100.00
2022-11-29T03:23:28.159Z,100.00
2022-11-29T03:26:04.416Z,100.00
2022-11-29T03:28:53.921Z,100.00
2022-11-29T03:31:20.233Z,100.00
2022-11-29T03:34:04.810Z,100.00
2022-11-29T03:36:31.189Z,100.00
2022-11-29T03:39:02.767Z,100.00
2022-11-29T03:41:35.689Z,100.00
2022-11-29T03:44:34.504Z,100.00
2022-11-29T03:47:04.401Z,100.00
2022-11-29T03:49:33.651Z,100.00
2022-11-29T03:52:02.888Z,100.00
2022-11-29T03:54:35.126Z,100.00
2022-11-29T03:57:01.547Z,100.00
2022-11-29T03:59:32.819Z,100.00
2022-11-29T04:01:59.175Z,100.00
2022-11-29T04:04:37.550Z,100.00
2022-11-29T04:07:19.648Z,100.00
2022-11-29T04:10:03.284Z,100.00
2022-11-29T04:12:48.755Z,100.00
2022-11-29T04:15:27.254Z,100.00
2022-11-29T04:17:53.724Z,100.00
2022-11-29T04:20:20.036Z,100.00
2022-11-29T04:23:12.764Z,100.00
2022-11-29T04:25:55.326Z,100.00
2022-11-29T04:28:41.793Z,100.00
2022-11-29T04:31:26.899Z,100.00
2022-11-29T04:34:10.114Z,100.00
2022-11-29T04:36:39.471Z,100.00
2022-11-29T04:39:18.637Z,100.00
2022-11-29T04:42:00.705Z,100.00
2022-11-29T04:44:46.094Z,100.00
2022-11-29T04:47:23.891Z,100.00
2022-11-29T04:49:59.837Z,100.00
2022-11-29T04:52:32.208Z,100.00
2022-11-29T04:55:01.542Z,100.00
2022-11-29T04:57:33.924Z,100.00
2022-11-29T05:00:09.865Z,100.00
2022-11-29T05:02:54.023Z,100.00
2022-11-29T05:05:23.356Z,100.00
2022-11-29T05:08:01.946Z,100.00
2022-11-29T05:10:31.973Z,100.00
2022-11-29T05:13:06.020Z,100.00
2022-11-29T05:15:44.830Z,100.00
2022-11-29T05:18:34.597Z,100.00
2022-11-29T05:21:03.958Z,100.00
2022-11-29T05:23:45.935Z,100.00
2022-11-29T05:26:32.412Z,100.00
2022-11-29T05:29:02.996Z,100.00
2022-11-29T05:31:29.459Z,100.00
2022-11-29T05:34:21.429Z,100.00
2022-11-29T05:37:02.950Z,100.00
2022-11-29T05:39:38.442Z,100.00
2022-11-29T05:42:07.756Z,100.00
2022-11-29T05:44:50.981Z,100.00
2022-11-29T05:47:32.367Z,100.00
2022-11-29T05:50:01.797Z,100.00
2022-11-29T05:52:36.598Z,100.00
2022-11-29T05:55:17.059Z,100.00
2022-11-29T05:57:46.373Z,100.00
2022-11-29T06:00:14.564Z,100.00
2022-11-29T06:02:47.085Z,100.00
2022-11-29T06:05:28.874Z,100.00
2022-11-29T06:08:08.793Z,100.00
2022-11-29T06:10:37.572Z,100.00
2022-11-29T06:13:22.948Z,100.00
2022-11-29T06:16:04.822Z,100.00
2022-11-29T06:18:38.798Z,100.00
2022-11-29T06:21:16.321Z,100.00
2022-11-29T06:24:01.015Z,100.00
2022-11-29T06:26:49.099Z,100.00
2022-11-29T06:29:29.607Z,100.00
2022-11-29T06:32:03.299Z,100.00
2022-11-29T06:34:49.894Z,100.00
2022-11-29T06:37:19.934Z,100.00
2022-11-29T06:39:49.687Z,100.00
2022-11-29T06:42:16.324Z,100.00
2022-11-29T06:44:43.176Z,100.00
2022-11-29T06:47:25.912Z,100.00
2022-11-29T06:50:01.117Z,100.00
2022-11-29T06:52:34.345Z,100.00
2022-11-29T06:55:06.070Z,100.00
2022-11-29T06:57:44.522Z,100.00
2022-11-29T07:00:16.432Z,100.00
2022-11-29T07:02:57.928Z,100.00
2022-11-29T07:05:27.665Z,100.00
2022-11-29T07:07:55.660Z,100.00
2022-11-29T07:10:22.801Z,100.00
2022-11-29T07:12:50.329Z,100.00
2022-11-29T07:15:18.013Z,100.00
2022-11-29T07:18:02.578Z,100.00
2022-11-29T07:20:31.909Z,100.00
2022-11-29T07:23:22.403Z,100.00
2022-11-29T07:26:31.112Z,100.00
2022-11-29T07:29:07.811Z,100.00
2022-11-29T07:31:53.099Z,100.00
2022-11-29T07:34:25.502Z,100.00
2022-11-29T07:37:10.713Z,100.00
2022-11-29T07:39:42.467Z,100.00
2022-11-29T07:42:16.141Z,100.00
2022-11-29T07:44:55.914Z,100.00
2022-11-29T07:47:22.538Z,100.00
2022-11-29T07:49:48.986Z,100.00
2022-11-29T07:52:16.431Z,100.00
2022-11-29T07:54:43.439Z,100.00
2022-11-29T07:57:10.238Z,100.00
2022-11-29T07:59:37.982Z,100.00
2022-11-29T08:02:10.134Z,100.00
2022-11-29T08:04:47.114Z,100.00
2022-11-29T08:07:13.590Z,100.00
2022-11-29T08:09:39.904Z,100.00
2022-11-29T08:12:06.455Z,100.00
2022-11-29T08:14:33.385Z,100.00
2022-11-29T08:16:59.771Z,100.00
2022-11-29T08:19:26.086Z,100.00
2022-11-29T08:21:52.493Z,100.00
2022-11-29T08:24:18.898Z,100.00
2022-11-29T08:26:45.293Z,100.00
2022-11-29T08:29:11.750Z,99.61
2022-11-29T08:31:38.477Z,99.26
2022-11-29T08:34:05.675Z,100.00
2022-11-29T08:36:32.462Z,99.32
2022-11-29T08:39:09.156Z,99.61
2022-11-29T08:41:36.505Z,99.96
2022-11-29T08:44:04.738Z,100.00
2022-11-29T08:46:49.957Z,99.49
2022-11-29T08:49:16.387Z,98.30
2022-11-29T08:51:42.753Z,98.08
2022-11-29T08:54:09.154Z,97.59
2022-11-29T08:59:22.802Z,98.76
2022-11-29T09:01:49.166Z,97.92
2022-11-29T09:04:17.095Z,97.61
2022-11-29T09:06:44.419Z,97.98
2022-11-29T09:09:10.788Z,96.47
2022-11-29T09:11:37.243Z,97.14
2022-11-29T09:14:04.887Z,96.28
2022-11-29T09:16:33.512Z,96.23
2022-11-29T09:19:00.167Z,95.83
2022-11-29T09:21:30.363Z,95.24
2022-11-29T09:23:59.263Z,94.78
2022-11-29T09:26:27.562Z,95.13
2022-11-29T09:28:54.102Z,95.41
2022-11-29T09:31:21.398Z,95.45
2022-11-29T09:33:48.301Z,95.31
2022-11-29T09:36:14.830Z,96.60
2022-11-29T09:38:41.265Z,95.83
2022-11-29T09:41:26.066Z,96.37
2022-11-29T09:44:12.658Z,94.48
2022-11-29T09:46:45.542Z,95.41
2022-11-29T09:49:18.104Z,94.95
2022-11-29T09:51:54.629Z,95.84
2022-11-29T09:54:29.180Z,94.15
2022-11-29T09:56:57.252Z,93.96
2022-11-29T09:59:31.721Z,93.82
2022-11-29T10:01:58.405Z,93.64
2022-11-29T10:04:27.452Z,92.36
2022-11-29T10:07:12.773Z,94.63
2022-11-29T10:09:44.132Z,93.85
2022-11-29T10:49:37.951Z,90.74
2022-11-29T10:52:05.417Z,90.75
2022-11-29T10:54:58.743Z,91.94
2022-11-29T10:57:25.270Z,92.43
2022-11-29T10:59:59.039Z,93.28
2022-11-29T11:02:25.709Z,94.21
2022-11-29T11:04:52.042Z,94.52
2022-11-29T11:07:27.629Z,92.22
2022-11-29T11:20:31.681Z,93.74
2022-11-29T11:26:26.641Z,93.82
2022-11-29T11:32:20.964Z,95.12
2022-11-29T11:38:23.098Z,95.00
2022-11-29T11:44:58.423Z,95.50
2022-11-29T11:47:21.194Z,96.44
2022-11-29T11:49:47.464Z,95.55
2022-11-29T11:52:17.088Z,94.27
2022-11-29T11:54:45.428Z,93.84
2022-11-29T11:57:16.764Z,94.52
2022-11-29T11:59:47.651Z,95.07
2022-11-29T12:02:36.117Z,94.68
2022-11-29T12:05:05.179Z,95.23
2022-11-29T12:08:06.672Z,96.22
2022-11-29T12:10:28.252Z,95.00
2022-11-29T12:12:56.613Z,94.83
2022-11-29T12:15:29.497Z,94.22
2022-11-29T12:18:04.963Z,93.25
2022-11-29T12:20:50.969Z,95.74
2022-11-29T12:23:27.157Z,94.79
2022-11-29T12:25:57.240Z,94.56
2022-11-29T12:28:31.875Z,95.82
2022-11-29T12:30:58.162Z,96.02
2022-11-29T12:33:43.466Z,95.06
2022-11-29T12:36:27.186Z,96.53
2022-11-29T12:39:06.506Z,96.12
2022-11-29T12:41:36.956Z,95.08
2022-11-29T12:44:22.228Z,94.62
2022-11-29T12:47:02.124Z,95.07
2022-11-29T12:49:51.859Z,95.75
2022-11-29T12:52:22.208Z,96.14
2022-11-29T12:54:57.214Z,96.61
2022-11-29T12:57:41.942Z,95.90
2022-11-29T13:00:12.791Z,96.49
2022-11-29T13:02:54.432Z,96.78
2022-11-29T13:05:24.600Z,96.51
2022-11-29T13:08:09.755Z,97.49
2022-11-29T13:10:45.152Z,95.76
2022-11-29T13:13:37.425Z,95.85
2022-11-29T13:16:27.714Z,96.09
2022-11-29T13:19:07.189Z,96.30
2022-11-29T13:21:39.595Z,97.12
2022-11-29T13:24:09.748Z,97.19
2022-11-29T13:26:37.727Z,96.72
2022-11-29T13:29:04.580Z,97.06
2022-11-29T13:31:31.342Z,97.22
2022-11-29T13:34:03.640Z,97.75
2022-11-29T13:36:30.035Z,96.68
2022-11-29T13:39:15.988Z,96.06
2022-11-29T13:41:48.972Z,96.81
2022-11-29T13:44:38.173Z,96.41
2022-11-29T13:47:11.723Z,97.55
2022-11-29T13:49:57.370Z,96.76
2022-11-29T13:52:58.114Z,97.28
2022-11-29T13:55:31.515Z,97.06
2022-11-29T13:58:17.872Z,97.75
2022-11-29T14:00:44.508Z,98.14
2022-11-29T14:03:23.102Z,97.63
2022-11-29T14:05:56.572Z,97.84
2022-11-29T14:08:54.532Z,97.79
2022-11-29T14:11:40.698Z,97.47
2022-11-29T14:14:07.201Z,98.89
2022-11-29T14:23:39.055Z,98.63
2022-11-29T14:26:05.553Z,97.84
2022-11-29T14:35:43.106Z,98.88
2022-11-29T14:45:36.808Z,99.08
2022-11-29T14:48:05.459Z,98.80
2022-11-29T14:50:36.231Z,98.11
2022-11-29T14:53:04.084Z,97.79
2022-11-29T14:58:35.984Z,97.61
2022-11-29T15:01:09.561Z,96.94
2022-11-29T15:03:57.916Z,97.58
2022-11-29T15:06:26.043Z,97.33
2022-11-29T15:09:06.470Z,97.52
2022-11-29T15:25:52.054Z,99.92
2022-11-29T15:28:23.392Z,98.47
2022-11-29T15:37:36.698Z,99.17
2022-11-29T15:40:06.142Z,99.11
2022-11-29T15:43:02.038Z,98.96
2022-11-29T15:45:32.841Z,99.53
2022-11-29T15:48:12.416Z,99.69
2022-11-29T15:50:43.552Z,99.46
2022-11-29T15:53:15.565Z,98.56
2022-11-29T15:55:42.742Z,99.17
2022-11-29T15:58:12.882Z,98.80
2022-11-29T16:00:39.846Z,99.14
2022-11-29T16:03:07.842Z,100.00
2022-11-29T16:05:36.519Z,100.00
2022-11-29T16:08:21.322Z,99.66
2022-11-29T16:10:53.386Z,100.00
2022-11-29T16:13:25.920Z,100.00
2022-11-29T16:16:06.143Z,100.00
2022-11-29T16:22:02.171Z,100.00
2022-11-29T16:24:28.518Z,100.00
2022-11-29T16:26:55.255Z,100.00
2022-11-29T16:29:29.785Z,100.00
2022-11-29T16:31:56.340Z,100.00
2022-11-29T16:34:33.047Z,100.00
2022-11-29T16:37:01.191Z,100.00
2022-11-29T16:39:28.135Z,100.00
2022-11-29T16:42:13.213Z,100.00
2022-11-29T16:44:39.492Z,100.00
2022-11-29T16:47:43.820Z,100.00
2022-11-29T16:50:19.441Z,100.00
2022-11-29T16:52:49.732Z,100.00
2022-11-29T16:55:18.999Z,100.00
2022-11-29T16:57:46.013Z,100.00
2022-11-29T17:00:31.719Z,100.00
2022-11-29T17:02:58.460Z,100.00
2022-11-29T17:05:25.104Z,100.00
2022-11-29T17:07:51.605Z,100.00
2022-11-29T17:10:19.051Z,100.00
2022-11-29T17:12:48.179Z,100.00
2022-11-29T17:15:14.950Z,100.00
2022-11-29T17:17:42.411Z,100.00
2022-11-29T17:20:10.301Z,100.00
2022-11-29T17:22:36.696Z,100.00
2022-11-29T17:25:03.530Z,100.00
2022-11-29T17:27:29.832Z,100.00
2022-11-29T17:29:57.311Z,100.00
2022-11-29T17:32:26.787Z,100.00
2022-11-29T17:34:53.511Z,100.00
2022-11-29T17:37:19.941Z,100.00
2022-11-29T17:39:48.384Z,100.00
2022-11-29T17:42:14.932Z,100.00
2022-11-29T17:44:41.495Z,100.00
2022-11-29T17:47:07.882Z,100.00
2022-11-29T17:49:34.272Z,100.00
2022-11-29T17:52:00.644Z,100.00
2022-11-29T17:54:27.056Z,100.00
2022-11-29T17:56:53.365Z,100.00
2022-11-29T17:59:20.506Z,100.00
2022-11-29T18:01:47.409Z,100.00
2022-11-29T18:04:14.175Z,100.00
2022-11-29T18:06:40.559Z,100.00
2022-11-29T18:09:08.496Z,100.00
2022-11-29T18:11:47.987Z,100.00
2022-11-29T18:14:17.096Z,100.00
2022-11-29T18:16:45.522Z,100.00
2022-11-29T18:19:13.414Z,100.00
2022-11-29T18:21:39.750Z,100.00
2022-11-29T18:24:06.948Z,100.00
2022-11-29T18:26:34.289Z,100.00
2022-11-29T18:29:00.976Z,100.00
2022-11-29T18:31:28.883Z,100.00
2022-11-29T18:33:56.541Z,100.00
2022-11-29T18:36:46.206Z,100.00
2022-11-29T18:39:17.050Z,100.00
2022-11-29T18:41:46.839Z,100.00
2022-11-29T18:44:15.354Z,100.00
2022-11-29T18:46:45.652Z,100.00
2022-11-29T18:49:14.010Z,100.00
2022-11-29T18:51:43.053Z,100.00
2022-11-29T18:54:09.914Z,100.00
2022-11-29T18:56:36.648Z,100.00
2022-11-29T18:59:08.640Z,100.00
2022-11-29T19:01:41.111Z,100.00
2022-11-29T19:04:14.238Z,100.00
2022-11-29T19:06:41.437Z,100.00
2022-11-29T19:09:11.255Z,100.00
2022-11-29T19:11:37.789Z,100.00
2022-11-29T19:14:05.418Z,100.00
2022-11-29T19:17:20.533Z,100.00
2022-11-29T19:19:47.153Z,100.00
2022-11-29T19:22:13.885Z,100.00
2022-11-29T19:24:40.482Z,100.00
2022-11-29T19:27:07.027Z,100.00
2022-11-29T19:29:39.351Z,100.00
2022-11-29T19:32:08.454Z,100.00
2022-11-29T19:34:37.586Z,100.00
2022-11-29T19:37:04.001Z,100.00
2022-11-29T19:39:31.252Z,100.00
2022-11-29T19:41:57.740Z,100.00
2022-11-29T19:44:29.803Z,100.00
2022-11-29T19:46:56.462Z,100.00
2022-11-29T19:49:22.975Z,100.00
2022-11-29T19:51:49.353Z,100.00
2022-11-29T19:54:17.995Z,100.00
2022-11-29T19:56:44.478Z,100.00
2022-11-29T19:59:11.342Z,100.00
2022-11-29T20:01:42.671Z,100.00
2022-11-29T20:04:10.663Z,100.00
2022-11-29T20:06:37.580Z,100.00
2022-11-29T20:09:04.434Z,99.13
2022-11-29T20:11:31.225Z,99.71
2022-11-29T20:13:59.153Z,100.00
2022-11-29T20:16:28.943Z,100.00
2022-11-29T20:18:56.263Z,100.00
2022-11-29T20:21:24.351Z,100.00
2022-11-29T20:23:59.329Z,100.00
2022-11-29T20:26:26.976Z,100.00
2022-11-29T20:28:53.643Z,99.78
2022-11-29T20:31:22.941Z,99.98
2022-11-29T20:33:52.055Z,100.00
2022-11-29T20:36:37.287Z,100.00
2022-11-29T20:39:12.133Z,100.00
2022-11-29T20:41:38.801Z,100.00
2022-11-29T20:44:05.487Z,100.00
2022-11-29T20:46:32.235Z,100.00
2022-11-29T20:49:04.731Z,100.00
2022-11-29T20:51:37.147Z,100.00
2022-11-29T20:54:03.880Z,100.00
2022-11-29T20:56:47.756Z,99.67
2022-11-29T20:59:24.727Z,99.94
2022-11-29T21:01:51.550Z,100.00
2022-11-29T21:04:23.728Z,100.00
2022-11-29T21:06:50.526Z,100.00
2022-11-29T21:09:17.435Z,100.00
2022-11-29T21:11:44.172Z,100.00
2022-11-29T21:14:13.754Z,100.00
2022-11-29T21:16:40.474Z,100.00
2022-11-29T21:19:22.563Z,100.00
2022-11-29T21:21:51.922Z,100.00
2022-11-29T21:24:27.528Z,100.00
2022-11-29T21:26:57.522Z,100.00
2022-11-29T21:29:24.562Z,100.00
2022-11-29T21:31:53.358Z,100.00
2022-11-29T21:34:23.339Z,100.00
2022-11-29T21:36:54.549Z,100.00
2022-11-29T21:39:21.086Z,100.00
2022-11-29T21:41:47.556Z,100.00
2022-11-29T21:44:14.089Z,100.00
2022-11-29T21:46:40.567Z,99.88
2022-11-29T21:49:07.097Z,100.00
2022-11-29T21:51:33.604Z,100.00
2022-11-29T21:54:03.856Z,100.00
2022-11-29T21:56:30.433Z,100.00
2022-11-29T21:58:56.905Z,100.00
2022-11-29T22:01:23.524Z,100.00
2022-11-29T22:03:52.558Z,100.00
2022-11-29T22:06:20.461Z,100.00
2022-11-29T22:08:47.910Z,100.00
2022-11-29T22:11:15.630Z,100.00
2022-11-29T22:14:05.011Z,100.00
2022-11-29T22:16:31.410Z,100.00
2022-11-29T22:18:58.327Z,100.00
2022-11-29T22:21:24.873Z,100.00
2022-11-29T22:23:52.102Z,100.00
2022-11-29T22:26:18.504Z,100.00
2022-11-29T22:28:44.977Z,100.00
2022-11-29T22:31:12.242Z,100.00
2022-11-29T22:33:38.973Z,100.00
2022-11-29T22:36:06.946Z,99.76
2022-11-29T22:38:33.812Z,100.00
2022-11-29T22:41:01.279Z,99.29
2022-11-29T22:43:28.180Z,99.49
2022-11-29T22:45:54.729Z,100.00
2022-11-29T22:48:21.056Z,100.00
2022-11-29T22:50:47.419Z,100.00
2022-11-29T22:53:13.805Z,100.00
2022-11-29T22:55:40.149Z,100.00
2022-11-29T22:58:06.618Z,100.00
2022-11-29T23:00:34.933Z,100.00
2022-11-29T23:03:01.284Z,100.00
2022-11-29T23:05:32.099Z,100.00
2022-11-29T23:07:58.903Z,100.00
2022-11-29T23:10:25.307Z,100.00
2022-11-29T23:12:51.604Z,100.00
2022-11-29T23:15:17.927Z,100.00
2022-11-29T23:17:44.296Z,100.00
2022-11-29T23:20:10.723Z,99.23
2022-11-29T23:22:39.211Z,99.80
2022-11-29T23:25:06.904Z,99.77
2022-11-29T23:27:33.234Z,99.11
2022-11-29T23:29:59.619Z,99.16
2022-11-29T23:32:25.957Z,98.82
2022-11-29T23:34:52.314Z,98.99
2022-11-29T23:37:18.663Z,99.06
2022-11-29T23:39:45.079Z,99.70
2022-11-29T23:42:11.466Z,98.73
2022-11-29T23:44:37.823Z,99.93
2022-11-29T23:47:04.175Z,99.80
2022-11-29T23:49:30.857Z,98.65
2022-11-29T23:51:57.389Z,98.72
2022-11-29T23:54:23.732Z,99.49
2022-11-29T23:56:50.124Z,98.92
2022-11-29T23:59:16.512Z,98.79
